Time;durP1;ratioP1;P1;durP2;ratioP2;P2;SDS_P1;SDS_P2;PMS_P1;PMS_P2;Temp;Humidity;BMP_temperature;BMP_pressure;BME280_temperature;BME280_humidity;BME280_pressure;Samples;Min_cycle;Max_cycle;Signal;HPM_P1;HPM_P2
2021/01/30 00:02:01;;;;;;;2.08;1.05;;;10.10;99.90;;;;;;5013350;28;20169;-76
2021/01/30 00:04:27;;;;;;;0.20;0.20;;;10.20;99.90;;;;;;4995636;28;20172;-76
2021/01/30 00:06:54;;;;;;;0.20;0.20;;;10.10;99.90;;;;;;5013134;28;20210;-75
2021/01/30 00:09:21;;;;;;;0.73;0.73;;;10.10;99.90;;;;;;5013150;28;20200;-75
2021/01/30 00:11:55;;;;;;;1.55;0.63;;;10.20;99.90;;;;;;5013236;28;20180;-74
2021/01/30 00:14:24;;;;;;;0.50;0.50;;;10.20;99.90;;;;;;5014149;28;20231;-74
2021/01/30 00:16:50;;;;;;;6.03;1.95;;;10.20;99.90;;;;;;5016796;28;20196;-75
2021/01/30 00:19:16;;;;;;;0.20;0.20;;;10.20;99.90;;;;;;5016813;28;20169;-74
2021/01/30 00:21:48;;;;;;;0.38;0.38;;;10.30;99.90;;;;;;5016586;28;20169;-75
2021/01/30 00:24:13;;;;;;;0.47;0.40;;;10.20;99.90;;;;;;5016542;28;20157;-74
2021/01/30 00:29:04;;;;;;;0.68;0.68;;;10.40;99.90;;;;;;5016532;28;20213;-74
2021/01/30 00:31:30;;;;;;;1.85;1.63;;;10.50;99.90;;;;;;5016475;28;20698;-74
2021/01/30 00:33:55;;;;;;;1.55;1.08;;;10.50;99.90;;;;;;5016387;28;20148;-75
2021/01/30 00:36:21;;;;;;;0.38;0.38;;;10.50;99.90;;;;;;5016409;28;20192;-75
2021/01/30 00:38:46;;;;;;;0.52;0.52;;;10.60;99.90;;;;;;5016142;28;20168;-74
2021/01/30 00:41:12;;;;;;;0.43;0.43;;;10.70;99.90;;;;;;5016659;28;20635;-74
2021/01/30 00:43:37;;;;;;;14.35;2.92;;;10.70;99.90;;;;;;5016115;28;20161;-74
2021/01/30 00:46:03;;;;;;;0.20;0.20;;;10.70;99.90;;;;;;5015869;28;20276;-75
2021/01/30 00:48:29;;;;;;;0.75;0.40;;;10.70;99.90;;;;;;5016016;28;20171;-74
2021/01/30 00:50:54;;;;;;;2.60;1.25;;;10.60;99.90;;;;;;5016039;28;20152;-74
2021/01/30 00:53:20;;;;;;;2.45;0.55;;;10.50;99.90;;;;;;5016088;28;20243;-75
2021/01/30 00:55:45;;;;;;;0.40;0.40;;;10.50;99.90;;;;;;5016133;28;20188;-74
2021/01/30 00:58:11;;;;;;;0.88;0.88;;;10.60;99.90;;;;;;5016118;28;20164;-76
2021/01/30 01:00:36;;;;;;;0.30;0.30;;;10.70;99.90;;;;;;5015818;28;20156;-74
2021/01/30 01:03:02;;;;;;;0.30;0.28;;;10.70;99.90;;;;;;5015948;28;20172;-75
2021/01/30 01:05:28;;;;;;;0.30;0.30;;;10.60;99.90;;;;;;5015837;28;20520;-75
2021/01/30 01:07:53;;;;;;;2.33;1.42;;;10.50;99.90;;;;;;5015781;28;20352;-74
2021/01/30 01:10:22;;;;;;;0.50;0.50;;;10.40;99.90;;;;;;5015662;28;20196;-74
2021/01/30 01:12:48;;;;;;;0.77;0.77;;;10.40;99.90;;;;;;5015733;28;20168;-75
2021/01/30 01:15:15;;;;;;;1.30;0.80;;;10.40;99.90;;;;;;5015801;28;20653;-74
2021/01/30 01:17:41;;;;;;;2.17;0.60;;;10.30;99.90;;;;;;5015462;28;20231;-74
2021/01/30 01:20:10;;;;;;;0.57;0.57;;;10.40;99.90;;;;;;5016128;28;20161;-74
2021/01/30 01:22:35;;;;;;;0.63;0.63;;;10.40;99.90;;;;;;5015247;28;20524;-73
2021/01/30 01:25:02;;;;;;;6.03;0.90;;;10.40;99.90;;;;;;5014999;28;20191;-74
2021/01/30 01:27:28;;;;;;;0.38;0.38;;;10.50;99.90;;;;;;5015412;28;20244;-73
2021/01/30 01:29:53;;;;;;;0.20;0.20;;;10.40;99.90;;;;;;5015545;28;20284;-75
2021/01/30 01:32:23;;;;;;;1.27;1.10;;;10.40;99.90;;;;;;5015516;28;20169;-75
2021/01/30 01:34:48;;;;;;;0.50;0.50;;;10.50;99.90;;;;;;5015489;28;20157;-75
2021/01/30 01:37:14;;;;;;;20.67;1.65;;;10.40;99.90;;;;;;5015803;28;20647;-76
2021/01/30 01:39:40;;;;;;;0.55;0.47;;;10.40;99.90;;;;;;5015625;28;20663;-76
2021/01/30 01:42:14;;;;;;;0.90;0.82;;;10.30;99.90;;;;;;5015471;28;20160;-76
2021/01/30 01:44:42;;;;;;;3.15;1.70;;;10.30;99.90;;;;;;5015257;28;20238;-76
2021/01/30 01:47:13;;;;;;;2.30;2.00;;;10.30;99.90;;;;;;5014998;28;20197;-75
2021/01/30 01:49:40;;;;;;;6.13;1.85;;;10.30;99.90;;;;;;4997393;28;20660;-75
2021/01/30 01:52:17;;;;;;;0.73;0.73;;;10.50;99.90;;;;;;5015181;28;20207;-75
2021/01/30 01:54:43;;;;;;;5.63;2.08;;;10.50;99.90;;;;;;5015039;28;20168;-75
2021/01/30 01:57:14;;;;;;;0.35;0.35;;;10.50;99.90;;;;;;4997444;28;20183;-76
2021/01/30 01:59:45;;;;;;;0.20;0.20;;;10.60;99.90;;;;;;5015016;28;20200;-75
2021/01/30 02:02:11;;;;;;;28.75;3.25;;;10.50;99.90;;;;;;5015091;28;20160;-76
2021/01/30 02:04:38;;;;;;;3.22;1.25;;;10.60;99.90;;;;;;5014896;28;20195;-75
2021/01/30 02:07:04;;;;;;;5.28;1.00;;;10.60;99.90;;;;;;5014720;28;20220;-75
2021/01/30 02:09:29;;;;;;;0.30;0.30;;;10.50;99.90;;;;;;5014773;28;20620;-75
2021/01/30 02:12:01;;;;;;;8.05;0.82;;;10.30;99.90;;;;;;5014852;28;20231;-76
2021/01/30 02:14:29;;;;;;;1.30;0.57;;;10.30;99.90;;;;;;5014693;28;20197;-75
2021/01/30 02:17:27;;;;;;;3.47;1.92;;;10.30;99.90;;;;;;5014563;28;20197;-76
2021/01/30 02:20:14;;;;;;;2.03;1.92;;;10.30;99.90;;;;;;5009765;28;20592;-75
2021/01/30 02:23:17;;;;;;;1.70;1.58;;;10.60;99.90;;;;;;5014559;28;20183;-75
2021/01/30 02:25:52;;;;;;;0.77;0.77;;;10.60;99.90;;;;;;5014459;28;20192;-74
2021/01/30 02:28:53;;;;;;;5.68;1.10;;;10.60;99.90;;;;;;5014327;28;20164;-73
2021/01/30 02:31:33;;;;;;;0.22;0.22;;;10.50;99.90;;;;;;4993297;28;20238;-75
2021/01/30 02:34:33;;;;;;;2.28;0.90;;;10.50;99.90;;;;;;5014282;28;20198;-75
2021/01/30 02:37:01;;;;;;;0.90;0.90;;;10.50;99.90;;;;;;5013855;28;20683;-76
2021/01/30 02:39:32;;;;;;;2.03;0.90;;;10.30;99.90;;;;;;5014410;28;20380;-75
2021/01/30 02:42:15;;;;;;;3.13;1.52;;;10.40;99.90;;;;;;5014157;28;20654;-76
2021/01/30 02:45:04;;;;;;;8.68;1.67;;;10.40;99.90;;;;;;5014136;28;20188;-75
2021/01/30 02:47:35;;;;;;;0.30;0.30;;;10.30;99.90;;;;;;5013822;28;20180;-74
2021/01/30 02:50:09;;;;;;;0.40;0.40;;;10.30;99.90;;;;;;5013840;28;20672;-74
2021/01/30 02:52:37;;;;;;;0.50;0.50;;;10.40;99.90;;;;;;5013714;28;20168;-75
2021/01/30 02:55:07;;;;;;;0.68;0.68;;;10.30;99.90;;;;;;5014046;28;20184;-76
2021/01/30 02:57:33;;;;;;;9.95;2.30;;;10.30;99.90;;;;;;5013453;28;20180;-76
2021/01/30 03:00:01;;;;;;;1.10;1.10;;;10.50;99.90;;;;;;5014033;28;20515;-75
2021/01/30 03:02:28;;;;;;;4.28;2.20;;;10.50;99.90;;;;;;5013811;28;20230;-75
2021/01/30 03:04:56;;;;;;;1.25;0.93;;;10.50;99.90;;;;;;5013717;28;20200;-74
2021/01/30 03:07:43;;;;;;;0.10;0.10;;;10.60;99.90;;;;;;5013659;28;20216;-76
2021/01/30 03:10:17;;;;;;;41.67;1.55;;;10.60;99.90;;;;;;5013608;28;20208;-75
2021/01/30 03:13:41;;;;;;;14.07;0.95;;;10.70;99.90;;;;;;5013596;28;20532;-75
2021/01/30 03:16:11;;;;;;;0.68;0.68;;;10.70;99.90;;;;;;4912287;29;20208;-77
2021/01/30 03:18:44;;;;;;;0.68;0.35;;;10.80;99.90;;;;;;5012457;28;20189;-76
2021/01/30 03:21:13;;;;;;;5.53;1.15;;;10.80;99.90;;;;;;5013742;28;20691;-75
2021/01/30 03:23:39;;;;;;;5.38;1.98;;;10.90;99.90;;;;;;5013608;28;20164;-76
2021/01/30 03:26:08;;;;;;;1.35;1.30;;;10.80;99.90;;;;;;5013435;28;20194;-76
2021/01/30 03:28:34;;;;;;;0.82;0.82;;;10.80;99.90;;;;;;5013285;28;20173;-74
2021/01/30 03:31:00;;;;;;;2.60;1.40;;;10.80;99.90;;;;;;5013674;28;20267;-74
2021/01/30 03:33:26;;;;;;;1.13;1.13;;;10.50;99.90;;;;;;5013376;28;20180;-73
2021/01/30 03:35:52;;;;;;;1.23;1.13;;;10.00;99.90;;;;;;4995716;28;20633;-74
2021/01/30 03:38:18;;;;;;;0.52;0.52;;;9.90;99.90;;;;;;5013312;28;20671;-74
2021/01/30 03:40:43;;;;;;;0.90;0.63;;;9.80;99.90;;;;;;5013452;28;20188;-75
2021/01/30 03:43:10;;;;;;;0.80;0.80;;;9.20;99.90;;;;;;5013248;28;20251;-74
2021/01/30 03:45:36;;;;;;;0.73;0.50;;;8.80;99.90;;;;;;5013173;28;20593;-73
2021/01/30 03:48:03;;;;;;;0.75;0.63;;;8.80;99.90;;;;;;5013657;28;20248;-73
2021/01/30 03:50:29;;;;;;;0.45;0.43;;;8.30;99.90;;;;;;4999489;28;20236;-75
2021/01/30 03:52:55;;;;;;;1.70;1.02;;;8.20;99.90;;;;;;5017217;28;20216;-74
2021/01/30 03:55:21;;;;;;;0.50;0.50;;;8.10;99.90;;;;;;5017071;28;20250;-74
2021/01/30 03:57:47;;;;;;;1.02;1.02;;;8.30;99.90;;;;;;5017296;28;20215;-74
2021/01/30 04:00:20;;;;;;;0.57;0.57;;;8.40;99.90;;;;;;5017119;28;20156;-74
2021/01/30 04:02:45;;;;;;;1.35;1.10;;;8.40;99.90;;;;;;5017017;28;20299;-75
2021/01/30 04:05:13;;;;;;;0.20;0.20;;;8.30;99.90;;;;;;5016930;28;20293;-74
2021/01/30 04:07:39;;;;;;;0.55;0.55;;;8.00;99.90;;;;;;5016565;28;20227;-75
2021/01/30 04:10:06;;;;;;;0.30;0.30;;;8.10;99.90;;;;;;5016882;28;20199;-74
2021/01/30 04:12:32;;;;;;;0.80;0.80;;;8.10;99.90;;;;;;5016685;28;20290;-74
2021/01/30 04:14:58;;;;;;;0.10;0.10;;;8.30;99.90;;;;;;5016752;28;20169;-75
2021/01/30 04:17:23;;;;;;;0.32;0.30;;;7.80;99.90;;;;;;4999080;28;20164;-75
2021/01/30 04:19:49;;;;;;;0.82;0.82;;;7.40;99.90;;;;;;5016712;28;20295;-74
2021/01/30 04:22:14;;;;;;;3.88;1.15;;;7.30;99.90;;;;;;5016638;28;20180;-73
2021/01/30 04:24:44;;;;;;;2.95;0.60;;;7.20;99.90;;;;;;4998981;28;20173;-77
2021/01/30 04:27:13;;;;;;;1.25;0.75;;;6.80;99.90;;;;;;5016464;28;20168;-75
2021/01/30 04:29:40;;;;;;;0.90;0.90;;;6.50;99.90;;;;;;5016369;28;20223;-75
2021/01/30 04:32:05;;;;;;;0.77;0.77;;;6.10;99.90;;;;;;5016539;28;20207;-74
2021/01/30 04:34:31;;;;;;;0.85;0.85;;;6.10;99.90;;;;;;5016444;28;20160;-76
2021/01/30 04:36:57;;;;;;;0.95;0.95;;;5.70;99.90;;;;;;5016789;28;20324;-76
2021/01/30 04:39:22;;;;;;;1.25;0.63;;;5.80;99.90;;;;;;5016510;28;20173;-77
2021/01/30 04:42:12;;;;;;;2.30;1.02;;;5.90;99.90;;;;;;5016218;28;20172;-76
2021/01/30 04:44:43;;;;;;;0.30;0.30;;;5.80;99.90;;;;;;5016335;28;20169;-76
2021/01/30 04:47:14;;;;;;;1.00;1.00;;;5.60;99.90;;;;;;5016434;28;20161;-76
2021/01/30 04:49:53;;;;;;;0.93;0.93;;;5.60;99.90;;;;;;4998545;28;20683;-77
2021/01/30 04:52:47;;;;;;;0.75;0.75;;;5.60;99.90;;;;;;5016118;28;20176;-76
2021/01/30 04:55:47;;;;;;;0.30;0.30;;;5.60;99.90;;;;;;5016244;28;20208;-76
2021/01/30 04:58:19;;;;;;;0.20;0.20;;;5.70;99.90;;;;;;5016078;28;20165;-77
2021/01/30 05:01:02;;;;;;;2.08;0.80;;;5.30;99.90;;;;;;5015447;28;20165;-78
2021/01/30 05:03:56;;;;;;;2.15;2.05;;;5.30;99.90;;;;;;5015974;28;20264;-77
2021/01/30 05:06:48;;;;;;;0.77;0.77;;;5.30;99.90;;;;;;5015359;28;20223;-77
2021/01/30 05:09:45;;;;;;;0.80;0.80;;;5.40;99.90;;;;;;4996339;28;20208;-77
2021/01/30 05:12:19;;;;;;;0.32;0.32;;;5.50;99.90;;;;;;4896476;28;20185;-76
2021/01/30 05:14:53;;;;;;;0.75;0.75;;;5.50;99.90;;;;;;4978923;28;20641;-77
2021/01/30 05:17:26;;;;;;;0.93;0.93;;;5.30;99.90;;;;;;4996258;28;20609;-76
2021/01/30 05:20:03;;;;;;;0.25;0.25;;;5.40;99.90;;;;;;4996351;28;20204;-76
2021/01/30 05:22:38;;;;;;;2.75;0.60;;;5.30;99.90;;;;;;4978529;28;20176;-77
2021/01/30 05:25:06;;;;;;;1.63;1.63;;;5.10;99.90;;;;;;4996180;28;20180;-76
2021/01/30 05:27:50;;;;;;;1.98;1.15;;;4.90;99.90;;;;;;4996186;28;20161;-76
2021/01/30 05:30:30;;;;;;;2.03;0.35;;;4.90;99.90;;;;;;4996135;28;20197;-77
2021/01/30 05:33:07;;;;;;;0.32;0.32;;;4.60;99.90;;;;;;4995933;28;20164;-77
2021/01/30 05:36:01;;;;;;;3.15;0.98;;;4.80;99.90;;;;;;4995755;28;20299;-74
2021/01/30 05:39:02;;;;;;;0.20;0.20;;;4.70;99.90;;;;;;4984739;28;20193;-74
2021/01/30 05:41:59;;;;;;;0.95;0.95;;;4.60;99.90;;;;;;4995592;28;20173;-76
2021/01/30 05:44:29;;;;;;;0.45;0.45;;;4.60;99.90;;;;;;4958277;28;20193;-76
2021/01/30 05:46:55;;;;;;;0.75;0.75;;;4.70;99.90;;;;;;4978180;28;20189;-76
2021/01/30 05:49:30;;;;;;;0.40;0.40;;;4.70;99.90;;;;;;4995687;28;20201;-75
2021/01/30 05:52:10;;;;;;;0.47;0.47;;;4.60;99.90;;;;;;4995654;28;20538;-74
2021/01/30 05:54:36;;;;;;;1.13;1.13;;;4.40;99.90;;;;;;4995368;28;20700;-75
2021/01/30 05:57:01;;;;;;;2.67;1.17;;;4.30;99.90;;;;;;4995218;28;20265;-75
2021/01/30 05:59:30;;;;;;;0.88;0.88;;;4.30;99.90;;;;;;4994056;28;20173;-75
2021/01/30 06:02:26;;;;;;;0.57;0.55;;;4.20;99.90;;;;;;4995155;28;20169;-76
2021/01/30 06:04:52;;;;;;;0.95;0.95;;;4.40;99.90;;;;;;4995139;28;20166;-75
2021/01/30 06:07:33;;;;;;;0.40;0.40;;;4.40;99.90;;;;;;5002981;28;20224;-75
2021/01/30 06:10:17;;;;;;;1.33;0.75;;;4.40;99.90;;;;;;5014543;28;20579;-74
2021/01/30 06:12:43;;;;;;;0.43;0.43;;;4.30;99.90;;;;;;5013542;28;20173;-75
2021/01/30 06:15:21;;;;;;;1.85;1.75;;;4.30;99.90;;;;;;5014506;28;20203;-75
2021/01/30 06:17:47;;;;;;;0.90;0.90;;;4.30;99.90;;;;;;5014410;28;20568;-76
2021/01/30 06:20:23;;;;;;;0.75;0.75;;;4.20;99.90;;;;;;5014551;28;20185;-75
2021/01/30 06:23:09;;;;;;;0.40;0.40;;;4.20;99.90;;;;;;5014329;28;20171;-74
2021/01/30 06:25:42;;;;;;;1.85;1.75;;;4.30;99.90;;;;;;5014169;28;20188;-75
2021/01/30 06:28:41;;;;;;;0.40;0.40;;;4.10;99.90;;;;;;5014385;28;20508;-75
2021/01/30 06:31:19;;;;;;;1.25;1.05;;;4.20;99.90;;;;;;5009394;28;20195;-74
2021/01/30 06:33:51;;;;;;;0.55;0.55;;;4.00;99.90;;;;;;4996652;28;20168;-75
2021/01/30 06:36:20;;;;;;;0.65;0.65;;;3.90;99.90;;;;;;5014231;28;20268;-75
2021/01/30 06:39:06;;;;;;;0.52;0.52;;;4.00;99.90;;;;;;5014212;28;20260;-75
2021/01/30 06:41:32;;;;;;;4.05;1.05;;;4.10;99.90;;;;;;5013346;28;20543;-75
2021/01/30 06:43:58;;;;;;;2.00;1.23;;;4.00;99.90;;;;;;5014087;28;20160;-74
2021/01/30 06:46:25;;;;;;;0.40;0.40;;;4.10;99.90;;;;;;5014047;28;20207;-77
2021/01/30 06:48:53;;;;;;;0.38;0.38;;;4.00;99.90;;;;;;5013878;28;20203;-75
2021/01/30 06:51:20;;;;;;;2.22;0.68;;;4.00;99.90;;;;;;5013848;28;20244;-75
2021/01/30 06:53:46;;;;;;;0.35;0.35;;;4.00;99.90;;;;;;5013953;28;20165;-75
2021/01/30 06:56:17;;;;;;;0.95;0.95;;;3.80;99.90;;;;;;5013705;28;20200;-76
2021/01/30 06:58:44;;;;;;;1.00;0.98;;;3.80;99.90;;;;;;5013777;28;20648;-76
2021/01/30 07:01:14;;;;;;;1.00;1.00;;;3.90;99.90;;;;;;5013730;28;20185;-74
2021/01/30 07:03:55;;;;;;;1.27;0.88;;;3.80;99.90;;;;;;5013680;28;20206;-74
2021/01/30 07:07:02;;;;;;;0.20;0.20;;;3.60;99.90;;;;;;4995525;28;20192;-74
2021/01/30 07:09:57;;;;;;;0.57;0.57;;;3.60;99.90;;;;;;5012440;28;20668;-74
2021/01/30 07:12:35;;;;;;;0.82;0.43;;;3.60;99.90;;;;;;5013534;28;20164;-75
2021/01/30 07:15:12;;;;;;;0.73;0.73;;;3.70;99.90;;;;;;5013387;28;21589;-75
2021/01/30 07:18:02;;;;;;;2.38;1.55;;;3.70;99.90;;;;;;5013192;28;20172;-74
2021/01/30 07:20:56;;;;;;;0.25;0.25;;;3.70;99.90;;;;;;5013314;28;20156;-75
2021/01/30 07:23:42;;;;;;;1.33;1.23;;;3.80;99.90;;;;;;4995851;28;20179;-75
2021/01/30 07:26:24;;;;;;;0.32;0.32;;;3.70;99.90;;;;;;5013317;28;20722;-74
2021/01/30 07:29:00;;;;;;;1.08;0.43;;;3.50;99.90;;;;;;5013194;28;20172;-75
2021/01/30 07:32:10;;;;;;;0.25;0.25;;;3.40;99.90;;;;;;5013333;28;20169;-74
2021/01/30 07:35:04;;;;;;;0.30;0.30;;;3.40;99.90;;;;;;4988048;28;20323;-76
2021/01/30 07:37:49;;;;;;;0.73;0.73;;;3.40;99.90;;;;;;4999917;28;20574;-75
2021/01/30 07:40:42;;;;;;;0.20;0.20;;;3.40;99.90;;;;;;4996174;28;20606;-75
2021/01/30 07:43:18;;;;;;;0.73;0.73;;;3.40;99.90;;;;;;5013345;28;20180;-77
2021/01/30 07:45:52;;;;;;;0.30;0.30;;;3.60;99.90;;;;;;5013435;28;20192;-77
2021/01/30 07:48:30;;;;;;;0.60;0.60;;;3.50;99.90;;;;;;5013643;28;20164;-77
2021/01/30 07:51:04;;;;;;;0.13;0.13;;;3.30;99.90;;;;;;4995707;28;20239;-78
2021/01/30 07:53:29;;;;;;;0.47;0.47;;;3.40;99.90;;;;;;5013370;28;20164;-79
2021/01/30 07:56:18;;;;;;;0.77;0.77;;;3.40;99.90;;;;;;4995692;28;20554;-77
2021/01/30 07:59:21;;;;;;;0.20;0.20;;;3.40;99.90;;;;;;5000444;28;20235;-80
2021/01/30 08:01:53;;;;;;;0.55;0.55;;;3.40;99.90;;;;;;5013166;28;20214;-78
2021/01/30 08:04:30;;;;;;;0.20;0.20;;;3.30;99.90;;;;;;5013286;28;20161;-77
2021/01/30 08:07:01;;;;;;;0.75;0.75;;;3.20;99.90;;;;;;5013513;28;20220;-78
2021/01/30 08:09:32;;;;;;;0.50;0.50;;;3.10;99.90;;;;;;5013091;28;20295;-78
2021/01/30 08:12:08;;;;;;;0.45;0.45;;;3.20;99.90;;;;;;5013203;28;20176;-75
2021/01/30 08:14:59;;;;;;;0.75;0.73;;;3.20;99.90;;;;;;5012946;28;20211;-77
2021/01/30 08:17:43;;;;;;;0.47;0.47;;;3.30;99.90;;;;;;5012699;28;20161;-77
2021/01/30 08:20:20;;;;;;;0.47;0.40;;;3.40;99.90;;;;;;5013078;28;20651;-76
2021/01/30 08:22:59;;;;;;;0.17;0.17;;;3.40;99.90;;;;;;5012564;28;20164;-76
2021/01/30 08:25:30;;;;;;;1.95;1.85;;;3.40;99.90;;;;;;5012685;28;20184;-75
2021/01/30 08:28:08;;;;;;;10.32;1.42;;;3.40;99.90;;;;;;5012575;28;20195;-76
2021/01/30 08:30:34;;;;;;;0.73;0.73;;;3.40;99.90;;;;;;5012039;28;20775;-75
2021/01/30 08:33:05;;;;;;;0.30;0.30;;;3.30;99.90;;;;;;4994887;28;20204;-74
2021/01/30 08:35:31;;;;;;;0.22;0.22;;;3.30;99.90;;;;;;5013626;28;20267;-74
2021/01/30 08:38:01;;;;;;;2.00;1.13;;;3.30;99.90;;;;;;5016624;28;20562;-75
2021/01/30 08:40:42;;;;;;;0.15;0.15;;;3.30;99.90;;;;;;5016183;28;20207;-77
2021/01/30 08:43:10;;;;;;;0.20;0.20;;;3.40;99.90;;;;;;5016176;28;20682;-75
2021/01/30 08:45:36;;;;;;;0.35;0.35;;;3.60;99.90;;;;;;4998389;28;20188;-76
2021/01/30 08:48:06;;;;;;;0.30;0.30;;;3.40;99.90;;;;;;5013653;28;20177;-76
2021/01/30 08:50:49;;;;;;;0.82;0.47;;;3.40;99.90;;;;;;5003546;28;20208;-75
2021/01/30 08:53:26;;;;;;;2.92;0.80;;;3.40;99.90;;;;;;4996359;28;20165;-76
2021/01/30 08:55:53;;;;;;;0.30;0.30;;;3.40;99.90;;;;;;4996263;28;20607;-82
2021/01/30 08:58:36;;;;;;;0.75;0.75;;;3.40;99.90;;;;;;4996170;28;20664;-75
2021/01/30 09:01:05;;;;;;;1.38;0.82;;;3.50;99.90;;;;;;4996355;28;20248;-74
2021/01/30 09:03:49;;;;;;;0.20;0.20;;;3.40;99.90;;;;;;4996239;28;20213;-76
2021/01/30 09:06:40;;;;;;;1.00;1.00;;;3.40;99.90;;;;;;5006185;28;20200;-74
2021/01/30 09:09:14;;;;;;;0.28;0.28;;;3.30;99.90;;;;;;4995986;28;20240;-75
2021/01/30 09:11:47;;;;;;;0.65;0.65;;;3.30;99.90;;;;;;4994415;28;20184;-73
2021/01/30 09:14:18;;;;;;;0.47;0.47;;;3.40;99.90;;;;;;4998395;28;20161;-76
2021/01/30 09:16:47;;;;;;;0.68;0.68;;;3.40;99.90;;;;;;4996359;28;20247;-74
2021/01/30 09:19:45;;;;;;;0.45;0.45;;;3.20;99.90;;;;;;5014317;28;20176;-76
2021/01/30 09:22:46;;;;;;;0.50;0.50;;;3.20;99.90;;;;;;4986221;28;20183;-76
2021/01/30 09:25:11;;;;;;;0.65;0.65;;;3.20;99.90;;;;;;4995928;28;20196;-75
2021/01/30 09:28:05;;;;;;;0.63;0.63;;;3.10;99.90;;;;;;5014171;28;20176;-77
2021/01/30 09:30:39;;;;;;;0.43;0.43;;;3.10;99.90;;;;;;5013920;28;20200;-76
2021/01/30 09:33:13;;;;;;;0.20;0.20;;;3.00;99.90;;;;;;5013945;28;20186;-77
2021/01/30 09:35:41;;;;;;;1.40;1.33;;;3.10;99.90;;;;;;5013225;28;20717;-75
2021/01/30 09:38:35;;;;;;;0.60;0.60;;;3.10;99.90;;;;;;5004268;28;20184;-74
2021/01/30 09:41:28;;;;;;;0.20;0.20;;;3.10;99.90;;;;;;4993917;28;20238;-76
2021/01/30 09:44:16;;;;;;;0.60;0.60;;;2.90;99.90;;;;;;4986637;28;20261;-78
2021/01/30 09:46:45;;;;;;;0.40;0.40;;;2.90;99.90;;;;;;4993719;28;20216;-75
2021/01/30 09:49:20;;;;;;;0.45;0.45;;;3.10;99.90;;;;;;4994136;28;20193;-74
2021/01/30 09:51:46;;;;;;;1.55;0.80;;;3.10;99.90;;;;;;4976412;28;20173;-75
2021/01/30 09:54:15;;;;;;;0.35;0.35;;;3.00;99.90;;;;;;4994161;28;20165;-76
2021/01/30 09:56:41;;;;;;;0.77;0.77;;;2.90;99.90;;;;;;4993774;28;20606;-74
2021/01/30 09:59:08;;;;;;;1.60;0.57;;;2.90;99.90;;;;;;4993552;28;20166;-76
2021/01/30 10:01:36;;;;;;;8.57;2.90;;;2.90;99.90;;;;;;4993861;28;20655;-76
2021/01/30 10:04:15;;;;;;;1.00;1.00;;;2.90;99.90;;;;;;4993578;28;20161;-77
2021/01/30 10:06:41;;;;;;;1.48;1.38;;;2.90;99.90;;;;;;5008838;28;20285;-74
2021/01/30 10:09:15;;;;;;;0.25;0.25;;;3.00;99.90;;;;;;5012853;28;20287;-74
2021/01/30 10:11:43;;;;;;;0.20;0.20;;;2.90;99.90;;;;;;5013077;28;20173;-76
2021/01/30 10:14:10;;;;;;;0.52;0.52;;;2.80;99.90;;;;;;5013457;28;20161;-74
2021/01/30 10:16:36;;;;;;;1.40;1.38;;;2.80;99.90;;;;;;5012522;28;20573;-74
2021/01/30 10:19:10;;;;;;;0.45;0.45;;;2.80;99.90;;;;;;5012915;28;20169;-74
2021/01/30 10:21:41;;;;;;;0.60;0.60;;;2.80;99.90;;;;;;5010311;28;20168;-75
2021/01/30 10:24:26;;;;;;;3.38;1.95;;;2.70;99.90;;;;;;5012187;28;20200;-74
2021/01/30 10:27:09;;;;;;;0.20;0.20;;;2.60;99.90;;;;;;5012315;28;20187;-74
2021/01/30 10:29:34;;;;;;;3.30;1.38;;;2.60;99.90;;;;;;4995826;28;20200;-74
2021/01/30 10:32:06;;;;;;;6.72;1.38;;;2.60;99.90;;;;;;5013685;28;20173;-75
2021/01/30 10:34:37;;;;;;;1.50;1.17;;;2.60;99.90;;;;;;5013986;28;20209;-74
2021/01/30 10:37:13;;;;;;;0.30;0.30;;;2.70;99.90;;;;;;5014103;28;20199;-76
2021/01/30 10:39:56;;;;;;;0.32;0.32;;;2.70;99.90;;;;;;5013910;28;20659;-75
2021/01/30 10:42:27;;;;;;;3.80;1.25;;;2.60;99.90;;;;;;5013791;28;20171;-74
2021/01/30 10:45:13;;;;;;;1.50;0.70;;;2.60;99.90;;;;;;5013456;28;20644;-74
2021/01/30 10:47:39;;;;;;;1.92;1.83;;;2.60;99.90;;;;;;5013111;28;20668;-74
2021/01/30 10:50:15;;;;;;;1.13;1.13;;;2.60;99.90;;;;;;5013638;28;20208;-75
2021/01/30 10:52:40;;;;;;;1.00;1.00;;;2.50;99.90;;;;;;5013776;28;20176;-75
2021/01/30 10:55:35;;;;;;;2.15;2.05;;;2.50;99.90;;;;;;5013624;28;20247;-75
2021/01/30 10:58:39;;;;;;;1.60;1.50;;;2.60;99.90;;;;;;5012832;28;20164;-74
2021/01/30 11:01:29;;;;;;;1.60;1.60;;;2.70;99.90;;;;;;5009592;28;20198;-73
2021/01/30 11:04:02;;;;;;;0.50;0.50;;;2.60;99.90;;;;;;5012995;28;20184;-74
2021/01/30 11:06:35;;;;;;;2.17;2.08;;;2.80;99.90;;;;;;5013106;28;20370;-74
2021/01/30 11:09:20;;;;;;;1.83;1.80;;;2.60;99.90;;;;;;5013282;28;20515;-74
2021/01/30 11:11:47;;;;;;;1.52;1.52;;;2.70;99.90;;;;;;4995870;28;20177;-75
2021/01/30 11:14:27;;;;;;;2.30;2.20;;;2.60;99.90;;;;;;5013379;28;20311;-75
2021/01/30 11:16:55;;;;;;;2.33;2.22;;;2.50;99.90;;;;;;5013010;28;20632;-75
2021/01/30 11:19:41;;;;;;;3.08;1.48;;;2.50;99.90;;;;;;5013302;28;20169;-75
2021/01/30 11:22:21;;;;;;;0.73;0.73;;;2.50;99.90;;;;;;5013250;28;20176;-74
2021/01/30 11:24:53;;;;;;;6.13;3.73;;;2.60;99.90;;;;;;5013395;28;20179;-75
2021/01/30 11:27:34;;;;;;;1.15;1.15;;;2.70;99.90;;;;;;5013432;28;20207;-75
2021/01/30 11:30:15;;;;;;;5.75;2.67;;;2.70;99.90;;;;;;5013171;28;20223;-76
2021/01/30 11:32:49;;;;;;;2.42;1.33;;;2.60;99.90;;;;;;5013092;28;20172;-75
2021/01/30 11:35:22;;;;;;;1.50;1.42;;;2.70;99.90;;;;;;5013189;28;20221;-74
2021/01/30 11:37:49;;;;;;;6.53;3.47;;;2.60;99.90;;;;;;5013426;28;20176;-75
2021/01/30 11:40:16;;;;;;;5.50;1.40;;;2.60;99.90;;;;;;5012074;28;20223;-74
2021/01/30 11:42:42;;;;;;;0.67;0.67;;;2.70;99.90;;;;;;5013095;28;20238;-74
2021/01/30 11:45:08;;;;;;;1.63;1.52;;;2.70;99.90;;;;;;5013014;28;20185;-76
2021/01/30 11:47:34;;;;;;;1.35;1.30;;;2.70;99.90;;;;;;5013124;28;20191;-73
2021/01/30 11:50:00;;;;;;;1.17;1.17;;;2.60;99.90;;;;;;5012681;28;20208;-73
2021/01/30 11:52:27;;;;;;;2.50;2.30;;;2.60;99.90;;;;;;5013098;28;20211;-73
2021/01/30 11:54:53;;;;;;;0.67;0.67;;;2.50;99.90;;;;;;4995604;28;20169;-74
2021/01/30 11:57:19;;;;;;;1.25;1.20;;;2.60;99.90;;;;;;5013117;28;20204;-74
2021/01/30 11:59:45;;;;;;;1.30;1.20;;;2.50;99.90;;;;;;5012664;28;20193;-73
2021/01/30 12:02:29;;;;;;;2.03;1.90;;;2.60;99.90;;;;;;5012861;28;20636;-73
2021/01/30 12:04:55;;;;;;;1.17;1.07;;;2.70;99.90;;;;;;5013002;28;20526;-76
2021/01/30 12:07:20;;;;;;;1.48;1.38;;;2.80;99.90;;;;;;5012660;28;20212;-76
2021/01/30 12:09:46;;;;;;;0.73;0.73;;;2.80;99.90;;;;;;5012789;28;20212;-75
2021/01/30 12:12:12;;;;;;;2.45;2.35;;;2.90;99.90;;;;;;4999182;28;20620;-77
2021/01/30 12:14:38;;;;;;;1.13;1.13;;;2.90;99.90;;;;;;5016667;28;20179;-73
2021/01/30 12:17:04;;;;;;;1.42;1.38;;;2.90;99.90;;;;;;5016905;28;20195;-72
2021/01/30 12:19:30;;;;;;;3.13;2.88;;;3.10;99.90;;;;;;5016663;28;20168;-75
2021/01/30 12:21:56;;;;;;;1.30;1.20;;;3.00;99.90;;;;;;5016411;28;20650;-76
2021/01/30 12:24:22;;;;;;;0.88;0.88;;;3.20;99.90;;;;;;5016494;28;20492;-73
2021/01/30 12:26:48;;;;;;;1.70;1.67;;;3.20;99.90;;;;;;5016588;28;20196;-74
2021/01/30 12:29:13;;;;;;;1.65;1.55;;;3.20;99.90;;;;;;5016337;28;20204;-73
2021/01/30 12:31:39;;;;;;;0.75;0.75;;;3.30;99.90;;;;;;4998580;28;20185;-75
2021/01/30 12:34:04;;;;;;;1.27;1.27;;;3.20;99.90;;;;;;5016402;28;20172;-76
2021/01/30 12:36:30;;;;;;;4.35;2.15;;;3.20;99.90;;;;;;5016123;28;20589;-75
2021/01/30 12:38:56;;;;;;;1.67;1.67;;;3.10;99.90;;;;;;5016112;28;20169;-74
2021/01/30 12:41:21;;;;;;;1.58;1.38;;;3.00;99.90;;;;;;5016055;28;20640;-75
2021/01/30 12:43:47;;;;;;;1.08;1.08;;;3.10;99.90;;;;;;5016539;28;20535;-73
2021/01/30 12:46:13;;;;;;;1.17;1.17;;;3.10;99.90;;;;;;5016133;28;20551;-76
2021/01/30 12:48:39;;;;;;;0.90;0.90;;;3.20;99.90;;;;;;5016022;28;20177;-74
2021/01/30 12:51:05;;;;;;;1.00;1.00;;;3.30;99.90;;;;;;5016125;28;20338;-77
2021/01/30 12:53:31;;;;;;;5.65;2.53;;;3.20;99.90;;;;;;5015997;28;20171;-75
2021/01/30 12:55:57;;;;;;;1.67;1.45;;;3.10;99.90;;;;;;5015890;28;20197;-76
2021/01/30 12:58:28;;;;;;;4.47;1.10;;;3.10;99.90;;;;;;5016252;28;20556;-73
2021/01/30 13:00:56;;;;;;;1.77;1.75;;;3.00;99.90;;;;;;5015801;28;20153;-74
2021/01/30 13:03:23;;;;;;;0.93;0.93;;;3.10;99.90;;;;;;5015485;28;20167;-77
2021/01/30 13:05:50;;;;;;;3.60;2.58;;;3.30;99.90;;;;;;5015442;28;20676;-73
2021/01/30 13:08:18;;;;;;;1.30;1.20;;;3.30;99.90;;;;;;5015818;28;20577;-73
2021/01/30 13:10:44;;;;;;;1.48;1.40;;;3.20;99.90;;;;;;5008791;28;20562;-78
2021/01/30 13:13:10;;;;;;;0.90;0.88;;;3.10;99.90;;;;;;4996156;28;20173;-77
2021/01/30 13:15:35;;;;;;;0.60;0.60;;;3.10;99.90;;;;;;4995291;28;20200;-76
2021/01/30 13:18:01;;;;;;;3.22;1.60;;;3.00;99.90;;;;;;4995494;28;20162;-75
2021/01/30 13:20:27;;;;;;;1.73;1.73;;;3.00;99.90;;;;;;4995819;28;20160;-73
2021/01/30 13:22:55;;;;;;;1.15;1.15;;;3.00;99.90;;;;;;4995443;28;20169;-74
2021/01/30 13:25:20;;;;;;;1.40;1.38;;;3.20;99.90;;;;;;4995490;28;20193;-75
2021/01/30 13:27:46;;;;;;;0.37;0.37;;;3.30;99.90;;;;;;4999581;28;20165;-74